createdAt,value
2023-05-14T00:07:02.505Z,13.32
2023-05-14T00:13:50.648Z,13.41
2023-05-14T00:17:08.255Z,13.42
2023-05-14T00:23:39.616Z,13.28
2023-05-14T00:26:54.195Z,13.20
2023-05-14T00:30:18.826Z,13.18
2023-05-14T00:37:19.721Z,12.98
2023-05-14T00:43:54.754Z,13.07
2023-05-14T00:47:14.035Z,13.14
2023-05-14T00:50:18.863Z,13.03
2023-05-14T00:53:40.046Z,13.02
2023-05-14T00:56:31.134Z,12.99
2023-05-14T00:59:19.916Z,13.03
2023-05-14T01:02:30.966Z,12.97
2023-05-14T01:05:20.090Z,12.92
2023-05-14T01:08:21.771Z,12.96
2023-05-14T01:11:21.597Z,13.01
2023-05-14T01:14:24.455Z,12.97
2023-05-14T01:17:12.864Z,12.96
2023-05-14T01:20:02.882Z,12.96
2023-05-14T01:22:48.745Z,12.91
2023-05-14T01:25:38.268Z,12.85
2023-05-14T01:28:28.110Z,12.79
2023-05-14T01:31:35.419Z,12.66
2023-05-14T01:34:18.061Z,12.55
2023-05-14T01:37:04.546Z,12.52
2023-05-14T01:39:48.014Z,12.57
2023-05-14T01:42:23.556Z,12.61
2023-05-14T01:45:03.749Z,12.57
2023-05-14T01:47:55.270Z,12.52
2023-05-14T01:50:46.642Z,12.56
2023-05-14T01:53:34.478Z,12.60
2023-05-14T01:56:27.261Z,12.62
2023-05-14T01:59:31.815Z,12.61
2023-05-14T02:02:36.689Z,12.62
2023-05-14T02:05:57.864Z,12.55
2023-05-14T02:09:07.265Z,12.50
2023-05-14T02:12:12.053Z,12.38
2023-05-14T02:14:46.999Z,12.30
2023-05-14T02:17:42.280Z,12.33
2023-05-14T02:20:24.907Z,12.35
2023-05-14T02:23:41.653Z,12.42
2023-05-14T02:26:36.679Z,12.53
2023-05-14T02:29:48.792Z,12.57
2023-05-14T02:32:40.325Z,12.55
2023-05-14T02:35:31.131Z,12.59
2023-05-14T02:38:10.865Z,12.61
2023-05-14T02:40:59.871Z,12.56
2023-05-14T02:43:47.708Z,12.44
2023-05-14T02:46:39.986Z,12.37
2023-05-14T02:49:14.835Z,12.36
2023-05-14T02:51:47.351Z,12.39
2023-05-14T02:54:38.682Z,12.37
2023-05-14T02:57:24.577Z,12.27
2023-05-14T03:00:12.445Z,12.16
2023-05-14T03:02:59.814Z,12.07
2023-05-14T03:06:00.853Z,12.18
2023-05-14T03:09:09.641Z,12.22
2023-05-14T03:12:27.288Z,12.12
2023-05-14T03:22:19.556Z,11.90
2023-05-14T03:24:54.542Z,11.89
2023-05-14T03:27:21.637Z,11.87
2023-05-14T03:29:48.829Z,11.89
2023-05-14T03:32:15.895Z,11.95
2023-05-14T03:34:44.914Z,11.91
2023-05-14T03:37:12.255Z,11.91
2023-05-14T03:39:39.380Z,11.91
2023-05-14T03:42:06.785Z,12.10
2023-05-14T03:44:33.788Z,12.22
2023-05-14T03:47:00.762Z,12.23
2023-05-14T03:49:28.160Z,12.36
2023-05-14T03:51:56.195Z,12.42
2023-05-14T03:54:23.269Z,12.51
2023-05-14T03:56:50.386Z,12.56
2023-05-14T03:59:17.485Z,12.62
2023-05-14T04:01:44.813Z,12.70
2023-05-14T04:04:12.082Z,12.77
2023-05-14T04:06:39.259Z,12.78
2023-05-14T04:09:06.521Z,12.77
2023-05-14T04:11:33.544Z,12.82
2023-05-14T04:14:00.568Z,12.86
2023-05-14T04:16:27.631Z,12.78
2023-05-14T04:18:54.818Z,12.84
2023-05-14T04:21:21.867Z,12.89
2023-05-14T04:23:49.015Z,12.91
2023-05-14T04:26:16.207Z,12.85
2023-05-14T04:28:43.314Z,12.96
2023-05-14T04:31:10.646Z,13.03
2023-05-14T04:33:37.668Z,13.10
2023-05-14T04:36:05.954Z,13.21
2023-05-14T04:38:33.117Z,13.34
2023-05-14T04:41:00.390Z,13.40
2023-05-14T04:43:27.431Z,13.60
2023-05-14T04:45:54.691Z,13.77
2023-05-14T04:48:21.998Z,13.88
2023-05-14T04:50:49.061Z,13.95
2023-05-14T04:53:16.120Z,13.96
2023-05-14T04:55:43.202Z,13.99
2023-05-14T04:58:10.252Z,14.05
2023-05-14T05:00:37.723Z,14.12
2023-05-14T05:03:04.888Z,14.12
2023-05-14T05:05:32.030Z,14.09
2023-05-14T05:07:59.179Z,14.15
2023-05-14T05:10:26.702Z,14.17
2023-05-14T05:12:54.087Z,14.19
2023-05-14T05:15:21.130Z,14.28
2023-05-14T05:17:48.380Z,14.37
2023-05-14T05:20:15.758Z,14.41
2023-05-14T05:22:42.869Z,14.46
2023-05-14T05:25:09.980Z,14.51
2023-05-14T05:27:37.069Z,14.57
2023-05-14T05:30:04.697Z,14.59
2023-05-14T05:32:31.921Z,14.61
2023-05-14T05:34:59.016Z,14.63
2023-05-14T05:37:26.196Z,14.68
2023-05-14T05:39:54.246Z,14.72
2023-05-14T05:42:21.338Z,14.77
2023-05-14T05:44:48.590Z,14.80
2023-05-14T05:47:16.087Z,14.87
2023-05-14T05:49:43.252Z,14.94
2023-05-14T05:52:10.580Z,15.06
2023-05-14T05:54:39.965Z,15.26
2023-05-14T05:57:07.359Z,15.48
2023-05-14T05:59:34.698Z,15.71
2023-05-14T06:02:01.908Z,15.86
2023-05-14T06:04:29.081Z,15.97
2023-05-14T06:06:56.211Z,16.12
2023-05-14T06:09:23.381Z,16.20
2023-05-14T06:11:50.578Z,16.33
2023-05-14T06:14:17.824Z,16.48
2023-05-14T06:16:45.147Z,16.67
2023-05-14T06:19:12.473Z,16.83
2023-05-14T06:21:39.944Z,17.02
2023-05-14T06:24:07.610Z,17.16
2023-05-14T06:26:34.617Z,17.33
2023-05-14T06:29:01.847Z,17.44
2023-05-14T06:31:29.061Z,17.45
2023-05-14T06:33:56.324Z,17.31
2023-05-14T06:36:23.397Z,17.33
2023-05-14T06:38:50.652Z,17.45
2023-05-14T06:41:18.267Z,17.60
2023-05-14T06:43:45.291Z,17.85
2023-05-14T06:46:12.383Z,18.10
2023-05-14T06:48:39.481Z,18.34
2023-05-14T06:51:06.743Z,18.55
2023-05-14T06:53:33.880Z,18.75
2023-05-14T06:56:00.961Z,18.90
2023-05-14T06:58:28.113Z,18.86
2023-05-14T07:00:55.248Z,18.72
2023-05-14T07:03:22.740Z,18.68
2023-05-14T07:05:50.034Z,18.77
2023-05-14T07:08:17.131Z,18.92
2023-05-14T07:10:44.243Z,19.25
2023-05-14T07:13:11.387Z,19.49
2023-05-14T07:15:38.607Z,19.67
2023-05-14T07:18:05.946Z,19.86
2023-05-14T07:20:33.081Z,20.11
2023-05-14T07:23:00.238Z,20.37
2023-05-14T07:25:27.524Z,20.60
2023-05-14T07:27:54.615Z,20.72
2023-05-14T07:30:22.073Z,20.87
2023-05-14T07:32:49.302Z,21.02
2023-05-14T07:35:16.685Z,21.10
2023-05-14T07:37:43.853Z,21.18
2023-05-14T07:40:11.277Z,21.29
2023-05-14T07:42:38.350Z,21.43
2023-05-14T07:45:05.881Z,21.56
2023-05-14T07:47:33.301Z,21.72
2023-05-14T07:50:00.641Z,21.78
2023-05-14T07:52:27.871Z,21.90
2023-05-14T07:54:55.384Z,21.98
2023-05-14T07:57:22.936Z,22.03
2023-05-14T07:59:50.358Z,21.96
2023-05-14T08:02:17.914Z,22.05
2023-05-14T08:04:45.475Z,22.04
2023-05-14T08:07:12.642Z,22.08
2023-05-14T08:09:40.196Z,22.21
2023-05-14T08:12:07.847Z,22.34
2023-05-14T08:14:35.024Z,22.51
2023-05-14T08:17:02.295Z,22.55
2023-05-14T08:19:29.445Z,22.60
2023-05-14T08:21:56.761Z,22.69
2023-05-14T08:24:23.864Z,22.80
2023-05-14T08:26:51.070Z,22.94
2023-05-14T08:29:18.220Z,22.98
2023-05-14T08:31:45.334Z,23.04
2023-05-14T08:34:12.510Z,23.08
2023-05-14T08:36:40.061Z,23.16
2023-05-14T08:39:10.196Z,23.25
2023-05-14T08:41:38.031Z,23.34
2023-05-14T08:44:13.544Z,23.33
2023-05-14T08:46:41.340Z,23.35
2023-05-14T08:49:30.234Z,23.45
2023-05-14T08:51:58.031Z,23.56
2023-05-14T08:54:27.279Z,23.59
2023-05-14T08:56:54.751Z,23.74
2023-05-14T08:59:22.170Z,23.81
2023-05-14T09:01:53.081Z,23.82
2023-05-14T09:04:22.470Z,23.85
2023-05-14T09:06:51.326Z,23.94
2023-05-14T09:09:18.830Z,23.99
2023-05-14T09:11:50.930Z,23.91
2023-05-14T09:14:18.268Z,24.00
2023-05-14T09:16:47.179Z,24.10
2023-05-14T09:19:15.985Z,24.19
2023-05-14T09:21:45.631Z,24.31
2023-05-14T09:24:24.190Z,24.39
2023-05-14T09:26:53.693Z,24.44
2023-05-14T09:29:21.166Z,24.40
2023-05-14T09:31:51.555Z,24.48
2023-05-14T09:34:26.255Z,24.46
2023-05-14T09:37:07.673Z,24.44
2023-05-14T09:39:39.466Z,24.43
2023-05-14T09:42:06.921Z,24.65
2023-05-14T09:44:36.497Z,24.81
2023-05-14T09:47:04.520Z,24.69
2023-05-14T09:49:31.666Z,24.63
2023-05-14T09:51:58.746Z,24.72
2023-05-14T09:54:26.707Z,24.80
2023-05-14T09:56:55.624Z,24.75
2023-05-14T09:59:23.030Z,24.73
2023-05-14T10:01:51.404Z,24.71
2023-05-14T10:04:19.217Z,24.91
2023-05-14T10:06:49.985Z,24.77
2023-05-14T10:09:19.949Z,24.61
2023-05-14T10:11:52.869Z,24.55
2023-05-14T10:14:36.314Z,24.58
2023-05-14T10:17:05.121Z,24.75
2023-05-14T10:19:35.619Z,24.93
2023-05-14T10:22:07.234Z,25.00
2023-05-14T10:24:34.900Z,25.08
2023-05-14T10:27:02.557Z,24.98
2023-05-14T10:29:37.796Z,24.99
2023-05-14T10:32:07.440Z,25.25
2023-05-14T10:34:55.861Z,25.29
2023-05-14T10:37:26.794Z,25.34
2023-05-14T10:40:03.255Z,25.19
2023-05-14T10:42:43.486Z,24.99
2023-05-14T10:45:12.032Z,24.52
2023-05-14T10:47:41.059Z,24.03
2023-05-14T10:50:11.222Z,23.98
2023-05-14T10:52:38.611Z,24.12
2023-05-14T10:55:07.945Z,24.27
2023-05-14T10:57:38.503Z,23.99
2023-05-14T11:00:10.952Z,23.89
2023-05-14T11:02:39.815Z,23.96
2023-05-14T11:05:14.363Z,24.09
2023-05-14T11:07:49.649Z,24.23
2023-05-14T11:10:19.292Z,24.38
2023-05-14T11:12:48.598Z,24.50
2023-05-14T11:15:21.544Z,24.55
2023-05-14T11:17:50.596Z,24.50
2023-05-14T11:20:18.940Z,24.53
2023-05-14T11:22:48.426Z,24.65
2023-05-14T11:25:15.929Z,24.77
2023-05-14T11:27:47.814Z,24.77
2023-05-14T11:30:20.026Z,24.63
2023-05-14T11:32:48.584Z,24.35
2023-05-14T11:35:17.246Z,24.00
2023-05-14T11:37:51.243Z,23.52
2023-05-14T11:40:19.231Z,23.21
2023-05-14T11:42:46.442Z,22.96
2023-05-14T11:45:14.863Z,22.77
2023-05-14T11:47:42.952Z,22.66
2023-05-14T11:50:11.359Z,22.47
2023-05-14T11:52:41.256Z,22.43
2023-05-14T11:55:12.910Z,22.45
2023-05-14T11:57:41.359Z,22.45
2023-05-14T12:00:13.667Z,22.41
2023-05-14T12:02:41.240Z,22.34
2023-05-14T12:05:09.384Z,22.30
2023-05-14T12:07:36.570Z,22.44
2023-05-14T12:10:04.342Z,22.86
2023-05-14T12:12:36.614Z,23.01
2023-05-14T12:15:14.433Z,22.87
2023-05-14T12:17:41.811Z,22.69
2023-05-14T12:20:13.801Z,22.47
2023-05-14T12:22:42.516Z,22.31
2023-05-14T12:25:13.945Z,22.12
2023-05-14T12:27:41.920Z,22.10
2023-05-14T12:32:41.271Z,21.91
2023-05-14T12:35:09.244Z,21.88
2023-05-14T12:37:37.820Z,21.86
2023-05-14T12:40:09.377Z,21.89
2023-05-14T12:42:37.199Z,21.92
2023-05-14T12:45:07.436Z,21.95
2023-05-14T12:47:34.769Z,21.95
2023-05-14T12:50:02.381Z,22.01
2023-05-14T12:54:59.882Z,22.18
2023-05-14T12:57:27.976Z,22.13
2023-05-14T12:59:56.277Z,22.20
2023-05-14T13:02:23.426Z,22.31
2023-05-14T13:04:50.559Z,22.53
2023-05-14T13:07:17.582Z,22.75
2023-05-14T13:09:44.680Z,22.92
2023-05-14T13:12:11.855Z,22.91
2023-05-14T13:14:38.956Z,22.82
2023-05-14T13:17:08.206Z,22.71
2023-05-14T13:19:36.365Z,22.73
2023-05-14T13:22:03.816Z,22.75
2023-05-14T13:24:31.031Z,22.75
2023-05-14T13:26:58.419Z,22.72
2023-05-14T13:29:25.518Z,22.61
2023-05-14T13:31:53.428Z,22.44
2023-05-14T13:34:20.499Z,22.38
2023-05-14T13:36:49.499Z,22.31
2023-05-14T13:39:16.724Z,22.27
2023-05-14T13:41:43.881Z,22.38
2023-05-14T13:44:10.995Z,22.41
2023-05-14T13:46:38.268Z,22.51
2023-05-14T13:49:05.654Z,22.72
2023-05-14T13:51:32.861Z,22.91
2023-05-14T13:54:00.283Z,22.95
2023-05-14T13:56:27.433Z,22.97
2023-05-14T13:58:54.683Z,22.95
2023-05-14T14:01:23.648Z,22.87
2023-05-14T14:03:50.947Z,22.82
2023-05-14T14:06:18.739Z,22.68
2023-05-14T14:08:46.053Z,22.61
2023-05-14T14:11:13.979Z,22.49
2023-05-14T14:13:42.590Z,22.35
2023-05-14T14:16:10.905Z,22.32
2023-05-14T14:18:38.307Z,22.37
2023-05-14T14:21:05.368Z,22.41
2023-05-14T14:23:32.582Z,22.41
2023-05-14T14:26:01.133Z,22.33
2023-05-14T14:28:28.162Z,22.28
2023-05-14T14:30:55.515Z,22.26
2023-05-14T14:33:22.657Z,22.17
2023-05-14T14:35:49.761Z,22.08
2023-05-14T14:38:16.871Z,21.95
2023-05-14T14:40:44.040Z,21.83
2023-05-14T14:43:11.223Z,21.80
2023-05-14T14:45:38.580Z,21.71
2023-05-14T14:48:34.527Z,21.66
2023-05-14T14:51:01.843Z,21.62
2023-05-14T14:53:29.927Z,21.57
2023-05-14T14:55:57.857Z,21.51
2023-05-14T14:58:25.076Z,21.48
2023-05-14T15:00:54.864Z,21.40
2023-05-14T15:03:23.439Z,21.39
2023-05-14T15:05:52.501Z,21.34
2023-05-14T15:08:21.210Z,21.30
2023-05-14T15:10:48.711Z,21.28
2023-05-14T15:13:16.000Z,21.23
2023-05-14T15:15:43.623Z,21.20
2023-05-14T15:18:11.120Z,21.27
2023-05-14T15:20:38.250Z,21.23
2023-05-14T15:23:05.462Z,21.15
2023-05-14T15:25:33.263Z,21.07
2023-05-14T15:28:00.962Z,21.06
2023-05-14T15:30:28.492Z,21.01
2023-05-14T15:32:56.044Z,21.01
2023-05-14T15:35:24.588Z,20.99
2023-05-14T15:37:52.287Z,20.98
2023-05-14T15:40:19.825Z,20.95
2023-05-14T15:42:47.194Z,20.92
2023-05-14T15:45:14.697Z,20.90
2023-05-14T15:47:42.007Z,20.89
2023-05-14T15:50:09.384Z,20.85
2023-05-14T15:52:36.754Z,20.84
2023-05-14T15:55:06.299Z,20.82
2023-05-14T15:57:33.683Z,20.80
2023-05-14T16:00:00.768Z,20.80
2023-05-14T16:02:30.684Z,20.81
2023-05-14T16:04:57.913Z,20.78
2023-05-14T16:07:25.104Z,20.77
2023-05-14T16:09:52.274Z,20.77
2023-05-14T16:12:19.412Z,20.75
2023-05-14T16:14:46.701Z,20.78
2023-05-14T16:17:14.070Z,20.78
2023-05-14T16:19:41.566Z,20.75
2023-05-14T16:22:08.726Z,20.71
2023-05-14T16:24:36.478Z,20.71
2023-05-14T16:27:04.259Z,20.70
2023-05-14T16:29:32.431Z,20.70
2023-05-14T16:32:00.324Z,20.70
2023-05-14T16:34:28.365Z,20.69
2023-05-14T16:36:55.599Z,20.70
2023-05-14T16:39:23.316Z,20.70
2023-05-14T16:41:53.251Z,20.69
2023-05-14T16:44:21.807Z,20.68
2023-05-14T16:46:49.223Z,20.67
2023-05-14T16:49:17.112Z,20.65
2023-05-14T16:51:44.998Z,20.62
2023-05-14T16:54:12.272Z,20.59
2023-05-14T16:56:39.504Z,20.54
2023-05-14T16:59:07.737Z,20.51
2023-05-14T17:01:35.552Z,20.51
2023-05-14T17:04:02.838Z,20.49
2023-05-14T17:06:29.998Z,20.47
2023-05-14T17:08:57.049Z,20.44
2023-05-14T17:11:24.150Z,20.41
2023-05-14T17:13:51.402Z,20.39
2023-05-14T17:16:19.974Z,20.39
2023-05-14T17:18:47.343Z,20.36
2023-05-14T17:21:14.617Z,20.35
2023-05-14T17:23:42.704Z,20.32
2023-05-14T17:26:11.295Z,20.25
2023-05-14T17:28:38.365Z,20.24
2023-05-14T17:31:05.659Z,20.26
2023-05-14T17:33:32.837Z,20.18
2023-05-14T17:36:00.569Z,20.13
2023-05-14T17:38:27.667Z,20.10
2023-05-14T17:40:54.854Z,20.02
2023-05-14T17:43:21.966Z,19.99
2023-05-14T17:48:20.087Z,19.95
2023-05-14T17:50:47.327Z,19.88
2023-05-14T17:53:14.695Z,19.85
2023-05-14T17:55:43.933Z,19.84
2023-05-14T17:58:13.776Z,19.81
2023-05-14T18:00:41.768Z,19.75
2023-05-14T18:03:09.260Z,19.74
2023-05-14T18:05:37.291Z,19.66
2023-05-14T18:08:04.587Z,19.62
2023-05-14T18:10:31.817Z,19.57
2023-05-14T18:12:59.299Z,19.59
2023-05-14T18:15:27.561Z,19.51
2023-05-14T18:17:54.921Z,19.51
2023-05-14T18:20:22.214Z,19.45
2023-05-14T18:22:50.816Z,19.38
2023-05-14T18:25:18.164Z,19.38
2023-05-14T18:27:45.707Z,19.34
2023-05-14T18:30:17.001Z,19.31
2023-05-14T18:32:45.174Z,19.24
2023-05-14T18:35:13.680Z,19.23
2023-05-14T18:37:41.219Z,19.18
2023-05-14T18:40:09.143Z,19.11
2023-05-14T18:42:36.428Z,19.09
2023-05-14T18:45:04.574Z,19.01
2023-05-14T18:47:33.130Z,18.98
2023-05-14T18:50:02.183Z,18.93
2023-05-14T18:52:29.886Z,18.88
2023-05-14T18:54:57.178Z,18.84
2023-05-14T18:57:25.341Z,18.78
2023-05-14T18:59:52.647Z,18.77
2023-05-14T19:02:19.903Z,18.75
2023-05-14T19:07:17.175Z,18.68
2023-05-14T19:09:44.282Z,18.63
2023-05-14T19:12:11.428Z,18.60
2023-05-14T19:14:38.516Z,18.57
2023-05-14T19:17:05.996Z,18.51
2023-05-14T19:19:33.098Z,18.45
2023-05-14T19:22:00.526Z,18.42
2023-05-14T19:24:27.637Z,18.38
2023-05-14T19:26:54.722Z,18.35
2023-05-14T19:29:21.942Z,18.29
2023-05-14T19:31:49.644Z,18.22
2023-05-14T19:34:16.835Z,18.22
2023-05-14T19:36:44.017Z,18.19
2023-05-14T19:39:11.297Z,18.14
2023-05-14T19:41:38.712Z,18.08
2023-05-14T19:44:05.845Z,18.02
2023-05-14T19:46:33.154Z,18.00
2023-05-14T19:49:00.650Z,17.98
2023-05-14T19:51:27.756Z,17.96
2023-05-14T19:53:54.999Z,17.94
2023-05-14T19:56:23.193Z,17.88
2023-05-14T19:58:51.452Z,17.78
2023-05-14T20:01:19.487Z,17.75
2023-05-14T20:03:47.151Z,17.70
2023-05-14T20:06:14.718Z,17.66
2023-05-14T20:08:41.879Z,17.67
2023-05-14T20:11:09.021Z,17.64
2023-05-14T20:13:36.964Z,17.57
2023-05-14T20:16:04.189Z,17.49
2023-05-14T20:18:31.434Z,17.49
2023-05-14T20:21:01.446Z,17.41
2023-05-14T20:23:28.618Z,17.33
2023-05-14T20:25:55.921Z,17.36
2023-05-14T20:28:23.002Z,17.36
2023-05-14T20:30:50.110Z,17.35
2023-05-14T20:33:17.315Z,17.34
2023-05-14T20:35:44.614Z,17.34
2023-05-14T20:38:13.012Z,17.32
2023-05-14T20:40:40.387Z,17.27
2023-05-14T20:43:07.596Z,17.20
2023-05-14T20:45:34.706Z,17.14
2023-05-14T20:48:01.999Z,17.05
2023-05-14T20:50:29.204Z,17.00
2023-05-14T20:52:56.393Z,16.98
2023-05-14T20:55:23.608Z,16.95
2023-05-14T20:57:51.160Z,16.90
2023-05-14T21:00:18.773Z,16.90
2023-05-14T21:02:46.691Z,16.81
2023-05-14T21:05:14.291Z,16.81
2023-05-14T21:07:41.362Z,16.79
2023-05-14T21:10:09.323Z,16.79
2023-05-14T21:12:36.500Z,16.75
2023-05-14T21:15:03.788Z,16.60
2023-05-14T21:17:31.214Z,16.60
2023-05-14T21:19:58.336Z,16.53
2023-05-14T21:22:25.688Z,16.56
2023-05-14T21:24:52.809Z,16.57
2023-05-14T21:27:19.949Z,16.56
2023-05-14T21:29:48.554Z,16.57
2023-05-14T21:32:15.813Z,16.54
2023-05-14T21:34:43.646Z,16.54
2023-05-14T21:37:10.880Z,16.54
2023-05-14T21:39:37.968Z,16.58
2023-05-14T21:42:05.389Z,16.56
2023-05-14T21:44:32.522Z,16.62
2023-05-14T21:46:59.858Z,16.62
2023-05-14T21:49:27.108Z,16.61
2023-05-14T21:51:54.800Z,16.56
2023-05-14T21:54:22.065Z,16.54
2023-05-14T21:56:49.219Z,16.50
2023-05-14T21:59:16.440Z,16.47
2023-05-14T22:04:13.663Z,16.37
2023-05-14T22:06:41.081Z,16.32
2023-05-14T22:09:11.343Z,16.38
2023-05-14T22:11:38.471Z,16.36
2023-05-14T22:14:05.510Z,16.35
2023-05-14T22:16:33.264Z,16.34
2023-05-14T22:19:00.410Z,16.38
2023-05-14T22:21:27.420Z,16.40
2023-05-14T22:23:54.581Z,16.42
2023-05-14T22:26:24.371Z,16.39
2023-05-14T22:28:52.687Z,16.40
2023-05-14T22:31:19.900Z,16.33
2023-05-14T22:33:46.954Z,16.26
2023-05-14T22:36:14.071Z,16.28
2023-05-14T22:38:43.922Z,16.25
2023-05-14T22:41:11.155Z,16.23
2023-05-14T22:43:38.267Z,16.18
2023-05-14T22:46:05.406Z,16.18
2023-05-14T22:48:32.503Z,16.13
2023-05-14T22:50:59.554Z,16.14
2023-05-14T22:53:26.710Z,16.13
2023-05-14T22:55:53.786Z,16.09
2023-05-14T22:58:20.831Z,16.08
2023-05-14T23:00:48.069Z,16.03
2023-05-14T23:03:15.095Z,16.10
2023-05-14T23:05:42.119Z,16.11
2023-05-14T23:08:09.266Z,16.13
2023-05-14T23:10:36.242Z,16.16
2023-05-14T23:13:03.953Z,16.15
2023-05-14T23:15:31.239Z,16.17
2023-05-14T23:17:58.490Z,16.13
2023-05-14T23:20:25.717Z,16.15
2023-05-14T23:22:54.203Z,16.12
2023-05-14T23:25:21.323Z,16.05
2023-05-14T23:27:50.170Z,16.01
2023-05-14T23:30:17.317Z,16.04
2023-05-14T23:32:44.410Z,16.06
2023-05-14T23:35:11.445Z,16.07
2023-05-14T23:37:42.730Z,16.06
2023-05-14T23:40:10.135Z,16.07
2023-05-14T23:42:37.158Z,16.12
2023-05-14T23:45:05.467Z,16.15
2023-05-14T23:47:32.772Z,16.12
2023-05-14T23:49:59.926Z,16.13
2023-05-14T23:52:27.049Z,16.10
2023-05-14T23:54:54.357Z,15.99
2023-05-14T23:57:21.512Z,16.03
2023-05-14T23:59:48.541Z,16.02
